Terminal Aerodrome Forecast
Issued by NWS

Current Version | Previous Version | Text Only | Print | Product List | Glossary On
Versions: 1 2 3 4 5 6 7 8 9 10 11 12 13 14 15 16 17 18 19 20 21 22
000 FTUS41 KBTV 311700 TAFMPV TAF KMPV 311722Z 3118/0118 18008KT 6SM -SHRA VCTS SCT025 BKN070CB TEMPO 3118/3119 23015G25KT 2SM +TSRA OVC020CB FM312200 19009KT P6SM BKN060 FM010600 VRB03KT 3SM BR SKC FM010900 VRB03KT 1/2SM FG VV002 FM011200 19004KT P6SM SCT080=

USA.gov is the U.S. government's official web portal to all federal, state and local government web resources and services.